Flight Track Log - Related Links

Times and Time Zones

All times are in EDT time to prevent confusion due to time zone crossing. See the EJA396 flight status page for this flight to view local times or setup timezone preferences in your user account.

Time Position Orientation Groundspeed Altitude Reporting Facility
EDT Latitude Longitude Course Direction KTS MPH feet Rate Location/Type
Sat 09:22:00 AM 33.3803 -66.5206 304° West  Level Estimated
Sat 09:23:00 AM 33.4430 -66.6371 303° West  Level Estimated
Sat 09:24:00 AM 33.5055 -66.7538 303° West  Level Estimated
Sat 09:25:00 AM 33.5678 -66.8707 303° West  Level Estimated
Sat 09:26:00 AM 33.6295 -66.9865 303° West  Level Estimated
Sat 09:27:00 AM 33.6910 -67.1025 303° West  Level Estimated
Sat 09:28:00 AM 33.7524 -67.2186 302° West  Level Estimated
Sat 09:29:00 AM 33.8137 -67.3349 302° West  Level Estimated
Sat 09:30:00 AM 33.8749 -67.4514 302° West  Level Estimated
Sat 09:30:09 AM 32.4667 -65.0667 287° West 399 459 16,000  Level New York Oceanic (ODAPS)
Sat 09:31:00 AM 33.9360 -67.5680 302° West  Level Estimated
Sat 09:32:00 AM 33.9969 -67.6848 302° West  Level Estimated
Sat 09:33:00 AM 34.0578 -67.8018 302° West  Level Estimated
Sat 09:34:00 AM 34.1186 -67.9189 302° West  Level Estimated
Sat 09:35:00 AM 34.1792 -68.0362 302° West  Level Estimated
Sat 09:36:00 AM 32.6881 -65.9462 286° West 399 459 16,000  Level FlightAware Transoceanic
Sat 09:37:00 AM 32.7192 -66.0722 286° West 399 459 16,000  Level FlightAware Transoceanic
Sat 09:38:00 AM 32.7502 -66.1983 286° West 399 459 16,000  Level FlightAware Transoceanic
Sat 09:39:00 AM 32.7811 -66.3245 286° West 399 459 16,000  Level FlightAware Transoceanic
Sat 09:40:00 AM 32.8119 -66.4507 286° West 399 459 16,000  Level FlightAware Transoceanic
Sat 09:41:00 AM 32.8425 -66.5771 286° West 399 459 16,000  Level FlightAware Transoceanic
Sat 09:42:00 AM 32.8730 -66.7035 286° West 399 459 16,000 11,881 Level FlightAware Transoceanic
Sat 09:42:41 AM 32.4667 -65.0667 287° West 399 459 36,000  Climbing New York Oceanic (ODAPS)
Sat 09:43:00 AM 32.9034 -66.8300 286° West 399 459 16,000 -15,190 Descending FlightAware Transoceanic
Sat 09:44:00 AM 32.9336 -66.9566 286° West 399 459 16,000  Level FlightAware Transoceanic
Sat 09:45:00 AM 32.9637 -67.0833 286° West 399 459 16,000  Level FlightAware Transoceanic
Sat 09:46:00 AM 32.9937 -67.2101 286° West 399 459 16,000  Level FlightAware Transoceanic
Sat 09:47:00 AM 33.0235 -67.3370 286° West 399 459 16,000  Level FlightAware Transoceanic
Sat 09:48:00 AM 33.0533 -67.4640 286° West 399 459 16,000 10,000 Level FlightAware Transoceanic
Sat 09:49:00 AM 33.0829 -67.5910 286° West 399 459 36,000 10,000 Climbing FlightAware Transoceanic
Sat 09:50:00 AM 33.1124 -67.7181 285° West 399 459 36,000  Level FlightAware Transoceanic
Sat 09:51:00 AM 33.1417 -67.8453 285° West 399 459 36,000  Level FlightAware Transoceanic
Sat 09:52:00 AM 33.1709 -67.9726 285° West 399 459 36,000  Level FlightAware Transoceanic
Sat 09:53:00 AM 33.2000 -68.1000 323° Northwest 399 459 36,000  Level FlightAware Transoceanic
Sat 09:54:00 AM 33.3014 -68.1898 323° Northwest 399 459 36,000  Level FlightAware Transoceanic
Sat 09:54:35 AM 33.2000 -68.1000 323° Northwest 426 490 36,000  Level New York Oceanic (ODAPS)
Sat 09:55:00 AM 33.4027 -68.2798 323° Northwest 399 459 36,000  Level FlightAware Transoceanic
Sat 09:56:00 AM 33.5040 -68.3701 323° Northwest 399 459 36,000  Level FlightAware Transoceanic
Sat 09:57:00 AM 33.6052 -68.4605 323° Northwest 399 459 36,000  Level FlightAware Transoceanic
Sat 09:58:00 AM 33.7064 -68.5512 323° Northwest 399 459 36,000  Level FlightAware Transoceanic
Sat 09:59:00 AM 33.8075 -68.6420 323° Northwest 399 459 36,000  Level FlightAware Transoceanic
Sat 10:00:00 AM 33.9719 -68.7904 323° Northwest 426 490 36,000  Level FlightAware Transoceanic
Sat 10:01:00 AM 34.0681 -68.8776 323° Northwest 426 490 36,000  Level FlightAware Transoceanic
Sat 10:02:00 AM 34.1642 -68.9650 323° Northwest 426 490 36,000  Level FlightAware Transoceanic
Sat 10:03:00 AM 34.2603 -69.0526 323° Northwest 426 490 36,000  Level FlightAware Transoceanic
Sat 10:04:00 AM 34.3563 -69.1403 323° Northwest 426 490 36,000  Level FlightAware Transoceanic
Sat 10:05:00 AM 34.4523 -69.2283 323° Northwest 426 490 36,000  Level FlightAware Transoceanic
Sat 10:06:00 AM 34.5482 -69.3165 323° Northwest 426 490 36,000  Level FlightAware Transoceanic
Sat 10:07:00 AM 34.6440 -69.4049 323° Northwest 426 490 36,000  Level FlightAware Transoceanic
Sat 10:08:00 AM 34.7398 -69.4935 323° Northwest 426 490 36,000  Level FlightAware Transoceanic
Sat 10:09:00 AM 34.8355 -69.5823 323° Northwest 426 490 36,000  Level FlightAware Transoceanic
Sat 10:10:00 AM 34.9311 -69.6713 323° Northwest 426 490 36,000  Level FlightAware Transoceanic
Sat 10:11:00 AM 35.0267 -69.7605 323° Northwest 426 490 36,000  Level FlightAware Transoceanic
Sat 10:12:00 AM 35.1222 -69.8499 323° Northwest 426 490 36,000  Level FlightAware Transoceanic
Sat 10:13:00 AM 35.2177 -69.9395 322° Northwest 426 490 36,000  Level FlightAware Transoceanic
Sat 10:14:00 AM 35.3130 -70.0294 322° Northwest 426 490 36,000  Level FlightAware Transoceanic
Sat 10:15:00 AM 35.4084 -70.1194 322° Northwest 426 490 36,000  Level FlightAware Transoceanic
Sat 10:16:00 AM 35.5036 -70.2097 322° Northwest 426 490 36,000  Level FlightAware Transoceanic
Sat 10:17:00 AM 35.5988 -70.3001 322° Northwest 426 490 36,000  Level FlightAware Transoceanic
Sat 10:18:00 AM 35.6939 -70.3908 322° Northwest 426 490 36,000  Level FlightAware Transoceanic
Sat 10:19:00 AM 35.7889 -70.4818 322° Northwest 426 490 36,000  Level FlightAware Transoceanic
Sat 10:19:15 AM 35.7667 -70.4500 322° Northwest 443 510 36,000  Level New York Oceanic (ODAPS)
Sat 10:20:00 AM 35.8839 -70.5729 322° Northwest 426 490 36,000  Level FlightAware Transoceanic
Sat 10:21:00 AM 35.9788 -70.6642 322° Northwest 426 490 36,000  Level FlightAware Transoceanic
Sat 10:22:00 AM 36.0737 -70.7558 322° Northwest 426 490 36,000  Level FlightAware Transoceanic
Sat 10:23:00 AM 36.1684 -70.8476 322° Northwest 426 490 36,000  Level FlightAware Transoceanic
Sat 10:24:00 AM 36.2631 -70.9396 322° Northwest 426 490 36,000  Level FlightAware Transoceanic
Sat 10:25:00 AM 36.4399 -71.1061 322° Northwest 443 510 36,000  Level FlightAware Transoceanic
Sat 10:26:00 AM 36.5357 -71.2008 322° Northwest 443 510 36,000  Level FlightAware Transoceanic
Sat 10:27:00 AM 36.6315 -71.2957 321° Northwest 443 510 36,000  Level FlightAware Transoceanic
Sat 10:28:00 AM 36.7273 -71.3908 321° Northwest 443 510 36,000  Level FlightAware Transoceanic
Sat 10:29:00 AM 36.8229 -71.4862 321° Northwest 443 510 36,000  Level FlightAware Transoceanic
Sat 10:30:00 AM 36.9185 -71.5818 321° Northwest 443 510 36,000  Level FlightAware Transoceanic
Sat 10:31:00 AM 37.0140 -71.6777 321° Northwest 443 510 36,000  Level FlightAware Transoceanic
Sat 10:32:00 AM 37.1094 -71.7738 321° Northwest 443 510 36,000  Level FlightAware Transoceanic
Sat 10:33:00 AM 37.2047 -71.8701 321° Northwest 443 510 36,000  Level FlightAware Transoceanic
Sat 10:34:00 AM 37.3000 -71.9667 330° Northwest 443 510 36,000  Level FlightAware Transoceanic
Sat 10:35:00 AM 37.3946 -72.0357 330° Northwest 443 510 36,000  Level FlightAware Transoceanic
Sat 10:36:00 AM 37.4891 -72.1049 330° Northwest 443 510 36,000  Level FlightAware Transoceanic
Sat 10:37:00 AM 37.5835 -72.1742 330° Northwest 443 510 36,000 232 Level FlightAware Transoceanic
Sat 10:39:01 AM 37.6819 -72.2497 330° Northwest 431 496 36,700 462 Climbing New York Center
Sat 10:40:02 AM 37.7789 -72.3225 329° Northwest 424 488 37,400 787 Climbing New York Center
Sat 10:41:03 AM 37.8822 -72.4011 329° Northwest 410 472 38,300 857 Climbing New York Center
Sat 10:42:01 AM 37.9347 -72.5078 302° West 396 456 39,100 712 Climbing New York Center
Sat 10:43:01 AM 37.9956 -72.6250 303° West 391 450 39,700 446 Climbing New York Center
Sat 10:44:02 AM 38.0644 -72.7561 304° West 385 443 40,000 148 Climbing New York Center
Sat 10:45:03 AM 38.1247 -72.8792 302° West 397 457 40,000  Level New York Center
Sat 10:46:03 AM 38.1872 -73.0000 303° West 416 479 40,000  Level New York Center
Sat 10:47:03 AM 38.2514 -73.1208 304° West 416 479 40,000  Level New York Center
Sat 10:48:38 AM 38.3511 -73.3017 305° West 410 472 40,000  Level Washington Center
Sat 10:49:38 AM 38.4100 -73.4294 300° West 410 472 40,000  Level Washington Center
Sat 10:50:38 AM 38.4767 -73.5469 306° West 410 472 40,000  Level Washington Center
Sat 10:51:36 AM 38.5350 -73.6700 301° West 410 472 40,000  Level Washington Center
Sat 10:52:38 AM 38.5931 -73.7908 302° West 410 472 40,000  Level Washington Center
Sat 10:53:38 AM 38.6531 -73.9036 304° West 405 466 40,000  Level Washington Center
Sat 10:54:36 AM 38.7111 -74.0219 302° West 405 466 40,000  Level Washington Center
Sat 10:55:37 AM 38.7708 -74.1378 304° West 400 460 40,000  Level Washington Center
Sat 10:56:38 AM 38.8264 -74.2567 301° West 395 455 40,000  Level Washington Center
Sat 10:57:36 AM 38.8819 -74.3756 301° West 395 455 40,000  Level Washington Center
Sat 10:58:36 AM 38.8939 -74.5222 276° West 390 449 40,000  Level Washington Center
Sat 10:59:37 AM 38.8972 -74.6689 272° West 402 463 40,000  Level Washington Center
Sat 11:00:37 AM 38.9003 -74.8156 272° West 419 482 40,000  Level Washington Center
Sat 11:01:38 AM 38.9053 -74.9675 272° West 424 488 40,000  Level Washington Center
Sat 11:02:36 AM 38.9081 -75.1194 271° West 424 488 40,000  Level Washington Center
Sat 11:03:37 AM 38.9106 -75.2394 272° West 424 488 40,000  Level Washington Center
Sat 11:04:37 AM 38.9403 -75.3942 284° West 417 480 40,000  Level Washington Center
Sat 11:05:38 AM 38.9778 -75.5328 289° West 417 480 40,000  Level Washington Center
Sat 11:06:36 AM 39.0133 -75.6717 288° West 417 480 40,000  Level Washington Center
Sat 11:07:37 AM 39.0464 -75.8133 287° West 417 480 40,000 344 Level Washington Center
Sat 11:08:38 AM 39.0836 -75.9500 289° West 412 474 40,700 738 Climbing Washington Center
Sat 11:09:39 AM 39.1167 -76.0839 288° West 406 467 41,500 807 Climbing Washington Center
Sat 11:10:37 AM 39.1492 -76.2314 286° West 394 453 42,300 655 Climbing Washington Center
Sat 11:11:38 AM 39.1839 -76.3628 289° West 389 448 42,800 347 Climbing Washington Center
Sat 11:12:38 AM 39.2183 -76.4969 288° West 389 448 43,000 102 Climbing Washington Center
Sat 11:13:36 AM 39.2508 -76.6314 287° West 389 448 43,000  Level Washington Center
Sat 11:14:37 AM 39.2850 -76.7686 288° West 394 453 43,000  Level Washington Center
Sat 11:15:38 AM 39.3189 -76.9061 288° West 406 467 43,000  Level Washington Center
Sat 11:16:36 AM 39.3489 -77.0300 287° West 406 467 43,000  Level Washington Center
Sat 11:17:37 AM 39.3783 -77.1650 286° West 400 460 43,000  Level Washington Center
Sat 11:18:37 AM 39.4119 -77.3000 288° West 400 460 43,000  Level Washington Center
Sat 11:19:38 AM 39.4453 -77.4378 287° West 400 460 43,000  Level Washington Center
Sat 11:20:36 AM 39.4786 -77.5731 288° West 400 460 43,000  Level Washington Center
Sat 11:21:37 AM 39.5097 -77.7083 287° West 400 460 43,000  Level Washington Center
Sat 11:24:07 AM 39.5956 -78.0722 287° West 403 464 43,000  Level Cleveland Center
Sat 11:25:07 AM 39.6275 -78.2086 287° West 403 464 43,000  Level Cleveland Center
Sat 11:26:07 AM 39.6594 -78.3475 287° West 403 464 43,000  Level Cleveland Center
Sat 11:27:07 AM 39.6914 -78.4869 287° West 403 464 43,000  Level Cleveland Center
Sat 11:28:07 AM 39.7231 -78.6236 287° West 403 464 43,000  Level Cleveland Center
Sat 11:29:07 AM 39.7544 -78.7631 286° West 398 458 43,000  Level Cleveland Center
Sat 11:30:07 AM 39.7839 -78.9028 285° West 398 458 43,000  Level Cleveland Center
Sat 11:31:07 AM 39.8106 -79.0236 286° West 393 452 43,000  Level Cleveland Center
Sat 11:32:07 AM 39.8394 -79.1608 285° West 393 452 43,000  Level Cleveland Center
Sat 11:33:07 AM 39.8703 -79.2983 286° West 393 452 43,000  Level Cleveland Center
Sat 11:34:07 AM 39.9008 -79.4383 286° West 393 452 43,000  Level Cleveland Center
Sat 11:35:07 AM 39.9314 -79.5758 286° West 393 452 43,000  Level Cleveland Center
Sat 11:36:07 AM 39.9597 -79.7136 285° West 393 452 43,000  Level Cleveland Center
Sat 11:37:07 AM 39.9878 -79.8514 285° West 393 452 43,000  Level Cleveland Center
Sat 11:38:07 AM 40.0178 -79.9894 286° West 393 452 43,000  Level Cleveland Center
Sat 11:39:07 AM 40.0475 -80.1303 285° West 393 452 43,000  Level Cleveland Center
Sat 11:40:07 AM 40.0750 -80.2656 285° West 393 452 43,000  Level Cleveland Center
Sat 11:41:07 AM 40.1044 -80.4067 285° West 398 458 43,000  Level Cleveland Center
Sat 11:42:07 AM 40.1317 -80.5450 284° West 398 458 43,000  Level Cleveland Center
Sat 11:43:07 AM 40.1631 -80.6836 287° West 398 458 43,000  Level Cleveland Center
Sat 11:45:17 AM 40.2211 -80.9872 284° West 401 461 43,000  Level Indianapolis Center
Sat 11:46:18 AM 40.2486 -81.1303 284° West 403 464 43,000  Level Indianapolis Center
Sat 11:47:20 AM 40.2783 -81.2736 285° West 403 464 43,000  Level Indianapolis Center
Sat 11:48:22 AM 40.2967 -81.4192 279° West 405 466 43,000  Level Indianapolis Center
Sat 11:49:23 AM 40.3311 -81.5575 288° West 398 458 43,000  Level Indianapolis Center
Sat 11:50:25 AM 40.4006 -81.7022 302° West 397 457 43,000  Level Indianapolis Center
Sat 11:51:26 AM 40.4594 -81.8247 302° West 395 455 43,000  Level Indianapolis Center
Sat 11:52:28 AM 40.5175 -81.9503 301° West 395 455 43,000  Level Indianapolis Center
Sat 11:53:30 AM 40.5417 -82.0931 283° West 396 456 43,000  Level Indianapolis Center
Sat 11:54:31 AM 40.5747 -82.2331 287° West 396 456 43,000  Level Indianapolis Center
Sat 11:55:33 AM 40.6122 -82.3700 290° West 394 453 43,000  Level Indianapolis Center
Sat 11:56:34 AM 40.6489 -82.5069 289° West 393 452 43,000  Level Indianapolis Center
Sat 11:57:36 AM 40.6853 -82.6439 289° West 393 452 43,000  Level Indianapolis Center
Sat 11:58:37 AM 40.7225 -82.7822 290° West 395 455 43,000  Level Indianapolis Center
Sat 11:59:39 AM 40.7589 -82.9211 289° West 397 457 43,000  Level Indianapolis Center
Sat 12:00:41 PM 40.7953 -83.0583 289° West 393 452 43,000  Level Indianapolis Center
Sat 12:01:42 PM 40.8308 -83.1969 289° West 397 457 43,000  Level Indianapolis Center
Sat 12:02:44 PM 40.8728 -83.3583 289° West 395 455 43,000  Level Indianapolis Center
Sat 12:03:46 PM 40.9083 -83.4956 289° West 393 452 43,000  Level Indianapolis Center
Sat 12:04:48 PM 40.9447 -83.6394 289° West 395 455 43,000  Level Indianapolis Center
Sat 12:06:31 PM 41.0078 -83.8742 290° West 393 452 43,000 -331 Level Cleveland Center
Sat 12:07:31 PM 41.0375 -83.9994 287° West 388 447 42,100 -1,000 Descending Cleveland Center
Sat 12:08:31 PM 41.0708 -84.1364 288° West 394 453 41,000 -1,247 Descending Cleveland Center
Sat 12:08:48 PM 41.0819 -84.1811 288° West 387 445 40,500 -1,519 Descending Chicago Center
Sat 12:09:50 PM 41.1131 -84.3056 288° West 361 415 39,000 -2,081 Descending Chicago Center
Sat 12:10:52 PM 41.1461 -84.4353 289° West 369 425 36,200 -2,780 Descending Chicago Center
Sat 12:11:53 PM 41.1800 -84.5756 288° West 396 456 33,300 -2,439 Descending Chicago Center
Sat 12:12:55 PM 41.2156 -84.7206 288° West 411 473 31,200 -2,177 Descending Chicago Center
Sat 12:13:57 PM 41.2586 -84.9006 288° West 424 488 28,800 -2,129 Descending Chicago Center
Sat 12:14:59 PM 41.2956 -85.0514 288° West 430 495 26,800 -1,935 Descending Chicago Center
Sat 12:16:01 PM 41.3300 -85.1958 288° West 415 478 24,800 -1,366 Descending Chicago Center
Sat 12:17:02 PM 41.3636 -85.3361 288° West 401 461 24,000 -1,073 Descending Chicago Center
Sat 12:18:04 PM 41.3961 -85.4750 287° West 392 451 22,600 -1,548 Descending Chicago Center
Sat 12:19:06 PM 41.4289 -85.6150 287° West 391 450 20,800 -1,839 Descending Chicago Center
Sat 12:20:08 PM 41.4597 -85.7489 287° West 376 433 18,800 -2,146 Descending Chicago Center
Sat 12:21:09 PM 41.4908 -85.8803 288° West 372 428 16,400 -2,439 Descending Chicago Center
Sat 12:22:11 PM 41.5197 -86.0089 287° West 361 415 13,800 -2,613 Descending Chicago Center
Sat 12:23:13 PM 41.5233 -86.1625 272° West 345 397 11,000 -1,597 Descending Chicago Center
Sat 12:24:15 PM 41.5231 -86.2861 270° West 336 387 10,500 -488 Descending Chicago Center
Sat 12:25:16 PM 41.5222 -86.4100 270° West 336 387 10,000 -244 Descending Chicago Center
Sat 12:26:18 PM 41.5214 -86.5336 270° West 333 383 10,000  Level Chicago Center
Sat 12:27:20 PM 41.5214 -86.6547 270° West 329 379 10,000 -195 Level Chicago Center
Sat 12:28:21 PM 41.5083 -86.7658 261° West 277 319 9,600 -780 Descending Chicago Center
Sat 12:29:23 PM 41.5117 -86.8633 273° West 265 305 8,400 -1,161 Descending Chicago Center
Sat 12:30:25 PM 41.5125 -86.9606 271° West 265 305 7,200 -1,113 Descending Chicago Center
Sat 12:31:27 PM 41.5144 -87.0583 272° West 266 306 6,100 -581 Descending Chicago Center
Sat 12:32:29 PM 41.5425 -87.1669 289° West 262 302 6,000 -439 Descending Chicago Center
Sat 12:33:30 PM 41.5694 -87.2558 292° West 262 302 5,200 -780 Descending Chicago Center
Sat 12:34:32 PM 41.5944 -87.3469 290° West 263 303 4,400 -581 Descending Chicago Center
Sat 12:35:34 PM 41.6192 -87.4289 292° West 254 292 4,000 -194 Descending Chicago Center
Sat 12:36:36 PM 41.6372 -87.4936 290° West 216 249 4,000  Level Chicago Center
Sat 12:37:38 PM 41.6567 -87.5597 292° West 200 230 4,000 -439 Level Chicago Center
Sat 12:38:39 PM 41.6914 -87.6239 306° West 187 215 3,100 -878 Descending Chicago Center
Sat 12:39:41 PM 41.7258 -87.6694 315° West 180 207 2,200 -871 Descending Chicago Center
Sat 12:40:43 PM 41.7581 -87.7158 313° West 176 203 1,300 -581 Descending Chicago Center
Sat 12:41:45 PM 41.7853 -87.7525 315° West 171 197 1,000 -290 Descending Chicago Center
Sat 12:43:00 PM 41.7833 -87.7500 334° Northwest  Level FlightAware Approximate

Login

Don't have an account? Register now (free) for customized features, flight alerts, and more!